»·PEaware :: DAL1632 KSFO-KLAX

DAL1632 :: KSFO-KLAX

FLIGHT INFORMATION

Flight Status: Arrived
Operator:
Delta Air Lines
More flights by this operator :: More flights under this callsign
Pilot: Anonymous 18378 (18378)
Aircraft: BOEING 737-800
(B738)
More flights by this aircraft type
Origin: KSFO San Francisco Intl
United States
Destination: KLAX Los Angeles Intl
United States
More flights between these airports :: More routes between these airports
Route: +SSTIK4 EBAYE BURGL IRNMN2
File this flight plan on PilotEdge
Remarks:
Altitude:
(Current/Filed)
37,000ft
Speed:
(Current/Filed)
400kts
Departed: 02-Dec-19 07:45 PM
Arrived: 02-Dec-19 09:47 PM
Distance/Time
Traveled:
293nm/2:02
Distance/Time
To Go:
Arrived

Flight Plot

Page will automatically refresh every two minutes.

Flight plan parsing failed; only flown route is shown


Map Options




Map Legend


Flown Route
Filed Route
Departure Airport
Arrival Airport
Navaid (VOR, NDB)
Fix

Horizontal Profiles

Position Reports

Time Latitude Longitude Heading Altitude Ground
Speed
02-Dec-19 18:56 37.619822 -122.383850 211 33ft 0kts
02-Dec-19 18:57 37.619822 -122.383850 211 33ft 0kts
02-Dec-19 18:58 37.619822 -122.383850 211 33ft 0kts
02-Dec-19 18:59 37.619822 -122.383850 211 33ft 0kts
02-Dec-19 19:00 37.619822 -122.383850 211 33ft 0kts
02-Dec-19 19:01 37.619822 -122.383850 211 33ft 0kts
02-Dec-19 19:02 37.619822 -122.383850 211 33ft 0kts
02-Dec-19 19:03 37.619822 -122.383850 211 33ft 0kts
02-Dec-19 19:04 37.619822 -122.383850 211 33ft 0kts
02-Dec-19 19:05 37.619822 -122.383850 211 33ft 0kts
02-Dec-19 19:06 37.619822 -122.383851 211 33ft 0kts
02-Dec-19 19:07 37.619822 -122.383851 211 33ft 0kts
02-Dec-19 19:08 37.619822 -122.383851 211 33ft 0kts
02-Dec-19 19:09 37.619822 -122.383851 211 33ft 0kts
02-Dec-19 19:10 37.619822 -122.383851 211 33ft 0kts
02-Dec-19 19:11 37.619822 -122.383851 211 33ft 0kts
02-Dec-19 19:12 37.619822 -122.383851 211 33ft 0kts
02-Dec-19 19:13 37.619822 -122.383851 211 33ft 0kts
02-Dec-19 19:14 37.619822 -122.383851 211 33ft 0kts
02-Dec-19 19:15 37.619822 -122.383851 211 33ft 0kts
02-Dec-19 19:16 37.619822 -122.383851 211 33ft 0kts
02-Dec-19 19:17 37.619822 -122.383851 211 33ft 0kts
02-Dec-19 19:18 37.619822 -122.383851 211 33ft 0kts
02-Dec-19 19:19 37.619822 -122.383851 211 33ft 0kts
02-Dec-19 19:20 37.619822 -122.383851 211 33ft 0kts
02-Dec-19 19:21 37.619822 -122.383851 211 33ft 0kts
02-Dec-19 19:22 37.619822 -122.383851 211 33ft 0kts
02-Dec-19 19:23 37.619822 -122.383851 211 33ft 0kts
02-Dec-19 19:24 37.619822 -122.383851 211 33ft 0kts
02-Dec-19 19:25 37.619822 -122.383851 211 33ft 0kts
02-Dec-19 19:26 37.619897 -122.383771 232 34ft 2kts
02-Dec-19 19:27 37.620255 -122.383417 140 34ft 1kts
02-Dec-19 19:28 37.620313 -122.383533 118 34ft 0kts
02-Dec-19 19:29 37.620313 -122.383533 118 34ft 0kts
02-Dec-19 19:30 37.620313 -122.383533 118 34ft 0kts
02-Dec-19 19:31 37.620313 -122.383533 118 34ft 0kts
02-Dec-19 19:32 37.620313 -122.383533 118 34ft 0kts
02-Dec-19 19:33 37.620081 -122.383014 120 33ft 9kts
02-Dec-19 19:34 37.618866 -122.380279 132 33ft 9kts
02-Dec-19 19:35 37.617045 -122.379503 188 33ft 3kts
02-Dec-19 19:36 37.616952 -122.379523 190 33ft 0kts
02-Dec-19 19:37 37.616609 -122.379657 202 33ft 10kts
02-Dec-19 19:38 37.613814 -122.381499 207 34ft 9kts
02-Dec-19 19:39 37.610266 -122.383933 214 34ft 13kts
02-Dec-19 19:40 37.608680 -122.384509 152 34ft 0kts
02-Dec-19 19:41 37.608953 -122.383710 102 34ft 1kts
02-Dec-19 19:42 37.609221 -122.382071 32 32ft 13kts
02-Dec-19 19:43 37.609485 -122.381887 28 32ft 0kts
02-Dec-19 19:44 37.636337 -122.367449 26 1279ft 170kts
02-Dec-19 19:45 37.691636 -122.363030 337 3681ft 250kts
02-Dec-19 19:46 37.687212 -122.439826 196 7285ft 269kts
02-Dec-19 19:47 37.608028 -122.453728 186 9977ft 275kts
02-Dec-19 19:48 37.528019 -122.460569 172 10846ft 313kts
02-Dec-19 19:49 37.443892 -122.410707 139 14363ft 336kts
02-Dec-19 19:50 37.374255 -122.317292 136 17523ft 354kts
02-Dec-19 19:51 37.302433 -122.219831 136 19118ft 365kts
02-Dec-19 19:52 37.228624 -122.120019 136 20634ft 377kts
02-Dec-19 19:53 37.153495 -122.018737 137 23139ft 392kts
02-Dec-19 19:54 37.077599 -121.911096 141 24173ft 382kts
02-Dec-19 19:55 37.018263 -121.836045 143 25483ft 337kts
02-Dec-19 19:56 36.967630 -121.768769 145 25469ft 331kts
02-Dec-19 19:57 36.904343 -121.684330 146 25466ft 323kts
02-Dec-19 19:58 36.842446 -121.601994 146 25567ft 316kts
02-Dec-19 19:59 36.784394 -121.524939 148 26041ft 296kts
02-Dec-19 20:00 36.728159 -121.450546 148 26141ft 290kts
02-Dec-19 20:01 36.673231 -121.377987 148 26245ft 284kts
02-Dec-19 20:02 36.619008 -121.306567 149 26308ft 277kts
02-Dec-19 20:03 36.564369 -121.234721 150 26335ft 271kts
02-Dec-19 20:19 37.611675 -122.385978 34 33ft 0kts
02-Dec-19 20:20 37.611675 -122.385978 34 33ft 0kts
02-Dec-19 20:21 37.611675 -122.385978 34 33ft 0kts
02-Dec-19 20:22 37.611675 -122.385978 34 33ft 0kts
02-Dec-19 20:23 37.611675 -122.385978 34 33ft 0kts
02-Dec-19 20:24 37.611675 -122.385978 34 33ft 0kts
02-Dec-19 20:25 37.611675 -122.385978 34 33ft 0kts
02-Dec-19 20:26 37.611675 -122.385978 34 33ft 0kts
02-Dec-19 20:27 37.611675 -122.385978 34 33ft 0kts
02-Dec-19 20:28 37.611675 -122.385978 34 33ft 0kts
02-Dec-19 20:29 37.611675 -122.385978 34 33ft 0kts
02-Dec-19 20:31 37.611675 -122.385978 34 33ft 0kts
02-Dec-19 20:32 37.611675 -122.385978 34 33ft 0kts
02-Dec-19 20:33 37.611675 -122.385978 34 33ft 0kts
02-Dec-19 20:34 37.611675 -122.385978 34 33ft 0kts
02-Dec-19 20:35 37.611675 -122.385978 34 33ft 0kts
02-Dec-19 20:36 37.611674 -122.385978 34 34ft 0kts
02-Dec-19 20:37 37.611331 -122.386280 19 34ft 2kts
02-Dec-19 20:38 37.611036 -122.386056 291 34ft 0kts
02-Dec-19 20:39 37.611037 -122.386056 291 33ft 0kts
02-Dec-19 20:40 37.611037 -122.386056 291 33ft 0kts
02-Dec-19 20:41 37.611037 -122.386056 291 33ft 0kts
02-Dec-19 20:42 37.609904 -122.384883 111 33ft 15kts
02-Dec-19 20:43 37.609306 -122.383930 139 33ft 0kts
02-Dec-19 20:44 37.609306 -122.383930 139 33ft 0kts
02-Dec-19 20:45 37.609412 -122.381939 29 32ft 12kts
02-Dec-19 20:46 37.610169 -122.381424 28 33ft 29kts
02-Dec-19 20:47 37.647516 -122.360114 15 1930ft 181kts
02-Dec-19 20:48 37.707971 -122.382082 296 4631ft 270kts
02-Dec-19 20:49 37.669777 -122.446201 185 8500ft 268kts
02-Dec-19 20:50 37.590138 -122.457452 186 9987ft 275kts
02-Dec-19 20:50 37.521147 -122.459542 169 10911ft 318kts
02-Dec-19 20:52 37.428618 -122.391118 136 14681ft 336kts
02-Dec-19 20:52 37.373067 -122.315673 136 17058ft 349kts
02-Dec-19 20:53 37.302388 -122.219813 137 19104ft 365kts
02-Dec-19 20:55 37.218311 -122.106139 137 19368ft 369kts
02-Dec-19 20:55 37.158370 -122.025305 137 21488ft 376kts
02-Dec-19 20:56 37.082969 -121.923914 139 23763ft 388kts
02-Dec-19 20:57 37.004351 -121.818580 143 25682ft 403kts
02-Dec-19 20:58 36.923274 -121.710226 145 27875ft 404kts
02-Dec-19 20:59 36.841765 -121.601715 147 30198ft 399kts
02-Dec-19 21:00 36.761111 -121.494725 148 32037ft 401kts
02-Dec-19 21:01 36.680553 -121.388193 150 33853ft 399kts
02-Dec-19 21:02 36.600932 -121.283165 151 35551ft 393kts
02-Dec-19 21:03 36.521330 -121.178515 151 37060ft 385kts
02-Dec-19 21:04 36.442084 -121.074975 152 37149ft 391kts
02-Dec-19 21:05 36.365042 -120.966297 150 37164ft 396kts
02-Dec-19 21:06 36.288983 -120.857156 150 37164ft 400kts
02-Dec-19 21:07 36.212662 -120.747837 150 37166ft 393kts
02-Dec-19 21:08 36.135679 -120.638039 150 37162ft 396kts
02-Dec-19 21:09 36.058548 -120.528381 150 37176ft 400kts
02-Dec-19 21:10 35.981787 -120.419608 150 37177ft 396kts
02-Dec-19 21:11 35.904913 -120.310972 151 37152ft 393kts
02-Dec-19 21:12 35.834281 -120.234111 167 37175ft 355kts
02-Dec-19 21:13 35.745963 -120.167892 168 37172ft 352kts
02-Dec-19 21:14 35.656449 -120.100486 168 37170ft 354kts
02-Dec-19 21:15 35.566174 -120.032351 168 37175ft 356kts
02-Dec-19 21:16 35.476402 -119.964724 168 37174ft 353kts
02-Dec-19 21:17 35.387148 -119.897766 167 37193ft 355kts
02-Dec-19 21:18 35.297291 -119.830448 168 37192ft 354kts
02-Dec-19 21:19 35.209841 -119.750274 162 37180ft 370kts
02-Dec-19 21:20 35.123683 -119.669768 162 37193ft 367kts
02-Dec-19 21:21 35.036985 -119.589088 162 37199ft 367kts
02-Dec-19 21:22 34.950263 -119.508621 162 36000ft 376kts
02-Dec-19 21:23 34.859184 -119.425956 160 31374ft 397kts
02-Dec-19 21:24 34.763420 -119.340361 155 25636ft 424kts
02-Dec-19 21:25 34.672857 -119.260806 157 24398ft 370kts
02-Dec-19 21:26 34.589824 -119.189154 156 23759ft 364kts
02-Dec-19 21:27 34.507184 -119.116599 154 21413ft 362kts
02-Dec-19 21:28 34.426328 -119.045205 153 19238ft 354kts
02-Dec-19 21:29 34.347025 -118.976663 151 17096ft 348kts
02-Dec-19 21:30 34.269493 -118.906510 147 14820ft 347kts
02-Dec-19 21:31 34.192696 -118.836095 146 13166ft 324kts
02-Dec-19 21:32 34.125561 -118.767951 140 11807ft 309kts
02-Dec-19 21:33 34.061563 -118.698202 139 10171ft 304kts
02-Dec-19 21:34 34.024460 -118.609267 99 8827ft 301kts
02-Dec-19 21:35 34.014898 -118.506982 96 7674ft 285kts
02-Dec-19 21:36 34.017150 -118.415462 77 6758ft 271kts
02-Dec-19 21:37 34.030212 -118.331549 83 6197ft 246kts
02-Dec-19 21:38 34.037668 -118.255276 82 5351ft 223kts
02-Dec-19 21:39 34.044175 -118.187384 81 4504ft 189kts
02-Dec-19 21:40 34.008213 -118.163019 226 2605ft 189kts
02-Dec-19 21:41 33.976143 -118.208888 231 2595ft 179kts
02-Dec-19 21:42 33.966350 -118.264318 266 2367ft 162kts
02-Dec-19 21:43 33.960604 -118.318384 264 1508ft 151kts
02-Dec-19 21:44 33.955712 -118.366664 264 736ft 139kts
02-Dec-19 21:45 33.951077 -118.412413 263 125ft 86kts
02-Dec-19 21:46 33.947529 -118.422207 224 119ft 16kts
02-Dec-19 21:47 33.947002 -118.420508 83 122ft 5kts
02-Dec-19 21:48 33.947346 -118.417291 82 122ft 24kts
02-Dec-19 21:49 33.947959 -118.412611 82 125ft 9kts
02-Dec-19 21:50 33.948412 -118.408248 82 125ft 17kts
02-Dec-19 21:51 33.948258 -118.406035 157 122ft 8kts
02-Dec-19 21:52 33.947224 -118.404931 134 122ft 3kts
02-Dec-19 21:53 33.947128 -118.404810 133 122ft 0kts
02-Dec-19 21:54 33.947128 -118.404810 133 122ft 0kts
02-Dec-19 21:55 33.947128 -118.404810 133 122ft 0kts

Navigation Log

Ident Type
Flight plan parsing failed, navigation log unavailable